sensor_id;sensor_type;location;lat;lon;timestamp;temperature;humidity
82991;DHT22;72806;50.832;4.864;2024-01-06T00:01:10;9.50;93.80
82991;DHT22;72806;50.832;4.864;2024-01-06T00:03:38;9.40;93.70
82991;DHT22;72806;50.832;4.864;2024-01-06T00:06:06;9.50;93.80
82991;DHT22;72806;50.832;4.864;2024-01-06T00:08:34;9.50;93.80
82991;DHT22;72806;50.832;4.864;2024-01-06T00:11:01;9.50;93.70
82991;DHT22;72806;50.832;4.864;2024-01-06T00:13:29;9.50;93.70
82991;DHT22;72806;50.832;4.864;2024-01-06T00:15:56;9.50;93.70
82991;DHT22;72806;50.832;4.864;2024-01-06T00:18:23;9.50;93.70
82991;DHT22;72806;50.832;4.864;2024-01-06T00:20:50;9.50;93.70
82991;DHT22;72806;50.832;4.864;2024-01-06T00:23:17;9.50;93.60
82991;DHT22;72806;50.832;4.864;2024-01-06T00:25:45;9.50;93.60
82991;DHT22;72806;50.832;4.864;2024-01-06T00:28:12;9.50;93.60
82991;DHT22;72806;50.832;4.864;2024-01-06T00:30:39;9.50;93.70
82991;DHT22;72806;50.832;4.864;2024-01-06T00:33:06;9.50;93.70
82991;DHT22;72806;50.832;4.864;2024-01-06T00:35:33;9.50;93.60
82991;DHT22;72806;50.832;4.864;2024-01-06T00:38:00;9.50;93.60
82991;DHT22;72806;50.832;4.864;2024-01-06T00:40:28;9.50;93.60
82991;DHT22;72806;50.832;4.864;2024-01-06T00:42:56;9.50;93.60
82991;DHT22;72806;50.832;4.864;2024-01-06T00:45:23;9.50;93.60
82991;DHT22;72806;50.832;4.864;2024-01-06T00:47:50;9.50;93.60
82991;DHT22;72806;50.832;4.864;2024-01-06T00:50:18;9.50;93.60
82991;DHT22;72806;50.832;4.864;2024-01-06T00:52:45;8.40;93.30
82991;DHT22;72806;50.832;4.864;2024-01-06T00:55:12;9.50;93.60
82991;DHT22;72806;50.832;4.864;2024-01-06T00:57:39;9.50;93.60
82991;DHT22;72806;50.832;4.864;2024-01-06T01:00:08;9.50;93.60
82991;DHT22;72806;50.832;4.864;2024-01-06T01:02:35;9.50;93.60
82991;DHT22;72806;50.832;4.864;2024-01-06T01:05:02;9.50;93.60
82991;DHT22;72806;50.832;4.864;2024-01-06T01:07:29;9.50;93.60
82991;DHT22;72806;50.832;4.864;2024-01-06T01:09:56;9.50;93.60
82991;DHT22;72806;50.832;4.864;2024-01-06T01:12:23;9.40;93.50
82991;DHT22;72806;50.832;4.864;2024-01-06T01:14:51;9.40;93.50
82991;DHT22;72806;50.832;4.864;2024-01-06T01:17:19;9.40;93.50
82991;DHT22;72806;50.832;4.864;2024-01-06T01:19:46;9.40;93.60
82991;DHT22;72806;50.832;4.864;2024-01-06T01:22:14;9.40;93.60
82991;DHT22;72806;50.832;4.864;2024-01-06T01:24:41;9.40;93.80
82991;DHT22;72806;50.832;4.864;2024-01-06T01:27:08;9.40;93.60
82991;DHT22;72806;50.832;4.864;2024-01-06T01:29:36;9.40;93.60
82991;DHT22;72806;50.832;4.864;2024-01-06T01:32:02;9.40;93.60
82991;DHT22;72806;50.832;4.864;2024-01-06T01:34:30;9.30;93.60
82991;DHT22;72806;50.832;4.864;2024-01-06T01:36:57;9.30;93.60
82991;DHT22;72806;50.832;4.864;2024-01-06T01:39:24;9.40;93.60
82991;DHT22;72806;50.832;4.864;2024-01-06T01:41:51;9.30;93.60
82991;DHT22;72806;50.832;4.864;2024-01-06T01:44:18;9.30;93.60
82991;DHT22;72806;50.832;4.864;2024-01-06T01:46:45;8.90;93.40
82991;DHT22;72806;50.832;4.864;2024-01-06T01:49:12;9.30;93.60
82991;DHT22;72806;50.832;4.864;2024-01-06T01:51:41;9.30;93.60
82991;DHT22;72806;50.832;4.864;2024-01-06T01:54:10;9.30;93.60
82991;DHT22;72806;50.832;4.864;2024-01-06T01:56:39;9.30;93.60
82991;DHT22;72806;50.832;4.864;2024-01-06T01:59:10;9.30;93.60
82991;DHT22;72806;50.832;4.864;2024-01-06T02:01:38;9.30;93.60
82991;DHT22;72806;50.832;4.864;2024-01-06T02:04:06;9.30;93.60
82991;DHT22;72806;50.832;4.864;2024-01-06T02:06:33;9.30;93.60
82991;DHT22;72806;50.832;4.864;2024-01-06T02:09:01;9.30;93.60
82991;DHT22;72806;50.832;4.864;2024-01-06T02:11:28;9.30;93.60
82991;DHT22;72806;50.832;4.864;2024-01-06T02:13:55;9.30;93.60
82991;DHT22;72806;50.832;4.864;2024-01-06T02:16:21;9.30;93.60
82991;DHT22;72806;50.832;4.864;2024-01-06T02:18:48;9.30;93.60
82991;DHT22;72806;50.832;4.864;2024-01-06T02:21:16;9.30;93.70
82991;DHT22;72806;50.832;4.864;2024-01-06T02:23:44;9.30;93.70
82991;DHT22;72806;50.832;4.864;2024-01-06T02:26:11;9.30;93.70
82991;DHT22;72806;50.832;4.864;2024-01-06T02:28:39;9.30;93.70
82991;DHT22;72806;50.832;4.864;2024-01-06T02:31:06;9.30;93.70
82991;DHT22;72806;50.832;4.864;2024-01-06T02:33:33;9.30;93.70
82991;DHT22;72806;50.832;4.864;2024-01-06T02:36:00;9.30;93.70
82991;DHT22;72806;50.832;4.864;2024-01-06T02:38:27;9.30;93.70
82991;DHT22;72806;50.832;4.864;2024-01-06T02:40:56;9.30;93.70
82991;DHT22;72806;50.832;4.864;2024-01-06T02:43:23;9.30;93.70
82991;DHT22;72806;50.832;4.864;2024-01-06T02:45:50;9.30;93.70
82991;DHT22;72806;50.832;4.864;2024-01-06T02:48:17;9.30;93.70
82991;DHT22;72806;50.832;4.864;2024-01-06T02:50:44;9.30;93.70
82991;DHT22;72806;50.832;4.864;2024-01-06T02:53:11;9.30;93.70
82991;DHT22;72806;50.832;4.864;2024-01-06T02:55:38;9.30;93.70
82991;DHT22;72806;50.832;4.864;2024-01-06T02:58:06;9.30;93.70
82991;DHT22;72806;50.832;4.864;2024-01-06T03:00:33;9.30;93.50
82991;DHT22;72806;50.832;4.864;2024-01-06T03:03:00;9.30;93.80
82991;DHT22;72806;50.832;4.864;2024-01-06T03:05:27;9.30;93.80
82991;DHT22;72806;50.832;4.864;2024-01-06T03:07:54;9.30;93.80
82991;DHT22;72806;50.832;4.864;2024-01-06T03:10:21;9.30;93.80
82991;DHT22;72806;50.832;4.864;2024-01-06T03:12:48;9.40;93.80
82991;DHT22;72806;50.832;4.864;2024-01-06T03:15:17;9.40;93.80
82991;DHT22;72806;50.832;4.864;2024-01-06T03:17:44;9.40;93.80
82991;DHT22;72806;50.832;4.864;2024-01-06T03:20:11;9.50;93.80
82991;DHT22;72806;50.832;4.864;2024-01-06T03:22:38;9.50;93.80
82991;DHT22;72806;50.832;4.864;2024-01-06T03:25:07;9.50;93.80
82991;DHT22;72806;50.832;4.864;2024-01-06T03:27:34;9.60;93.80
82991;DHT22;72806;50.832;4.864;2024-01-06T03:30:01;9.60;93.70
82991;DHT22;72806;50.832;4.864;2024-01-06T03:32:31;9.60;93.70
82991;DHT22;72806;50.832;4.864;2024-01-06T03:34:58;9.60;93.70
82991;DHT22;72806;50.832;4.864;2024-01-06T03:37:25;9.60;93.60
82991;DHT22;72806;50.832;4.864;2024-01-06T03:39:52;9.50;93.60
82991;DHT22;72806;50.832;4.864;2024-01-06T03:42:18;9.40;93.50
82991;DHT22;72806;50.832;4.864;2024-01-06T03:44:45;9.30;93.60
82991;DHT22;72806;50.832;4.864;2024-01-06T03:47:12;9.20;93.60
82991;DHT22;72806;50.832;4.864;2024-01-06T03:49:41;9.20;93.70
82991;DHT22;72806;50.832;4.864;2024-01-06T03:52:08;9.20;93.70
82991;DHT22;72806;50.832;4.864;2024-01-06T03:54:35;9.10;93.60
82991;DHT22;72806;50.832;4.864;2024-01-06T03:57:02;9.10;93.60
82991;DHT22;72806;50.832;4.864;2024-01-06T03:59:29;9.00;93.50
82991;DHT22;72806;50.832;4.864;2024-01-06T04:01:56;8.90;93.50
82991;DHT22;72806;50.832;4.864;2024-01-06T04:04:23;8.90;93.50
82991;DHT22;72806;50.832;4.864;2024-01-06T04:06:51;8.80;93.50
82991;DHT22;72806;50.832;4.864;2024-01-06T04:09:18;8.80;93.50
82991;DHT22;72806;50.832;4.864;2024-01-06T04:11:46;8.70;93.50
82991;DHT22;72806;50.832;4.864;2024-01-06T04:14:13;8.70;93.40
82991;DHT22;72806;50.832;4.864;2024-01-06T04:16:40;6.50;92.80
82991;DHT22;72806;50.832;4.864;2024-01-06T04:19:07;8.70;93.40
82991;DHT22;72806;50.832;4.864;2024-01-06T04:21:34;8.70;93.40
82991;DHT22;72806;50.832;4.864;2024-01-06T04:24:03;8.70;93.30
82991;DHT22;72806;50.832;4.864;2024-01-06T04:26:30;8.80;93.40
82991;DHT22;72806;50.832;4.864;2024-01-06T04:28:56;8.80;93.30
82991;DHT22;72806;50.832;4.864;2024-01-06T04:31:23;8.80;93.30
82991;DHT22;72806;50.832;4.864;2024-01-06T04:33:51;8.70;93.20
82991;DHT22;72806;50.832;4.864;2024-01-06T04:36:18;8.80;93.30
82991;DHT22;72806;50.832;4.864;2024-01-06T04:38:45;8.80;93.30
82991;DHT22;72806;50.832;4.864;2024-01-06T04:41:13;8.80;93.20
82991;DHT22;72806;50.832;4.864;2024-01-06T04:43:41;8.80;93.20
82991;DHT22;72806;50.832;4.864;2024-01-06T04:46:08;8.90;93.20
82991;DHT22;72806;50.832;4.864;2024-01-06T04:48:35;8.90;93.10
82991;DHT22;72806;50.832;4.864;2024-01-06T04:51:02;8.90;93.00
82991;DHT22;72806;50.832;4.864;2024-01-06T04:53:29;9.00;93.00
82991;DHT22;72806;50.832;4.864;2024-01-06T04:55:56;9.00;92.90
82991;DHT22;72806;50.832;4.864;2024-01-06T04:58:24;9.00;92.80
82991;DHT22;72806;50.832;4.864;2024-01-06T05:00:51;9.00;92.90
82991;DHT22;72806;50.832;4.864;2024-01-06T05:03:18;9.00;92.90
82991;DHT22;72806;50.832;4.864;2024-01-06T05:05:46;9.00;92.80
82991;DHT22;72806;50.832;4.864;2024-01-06T05:08:13;9.00;92.90
82991;DHT22;72806;50.832;4.864;2024-01-06T05:10:40;9.00;92.90
82991;DHT22;72806;50.832;4.864;2024-01-06T05:13:07;9.00;92.90
82991;DHT22;72806;50.832;4.864;2024-01-06T05:15:36;9.00;92.80
82991;DHT22;72806;50.832;4.864;2024-01-06T05:18:04;8.90;92.90
82991;DHT22;72806;50.832;4.864;2024-01-06T05:20:31;8.90;92.80
82991;DHT22;72806;50.832;4.864;2024-01-06T05:22:59;8.90;92.90
82991;DHT22;72806;50.832;4.864;2024-01-06T05:25:26;8.90;92.90
82991;DHT22;72806;50.832;4.864;2024-01-06T05:27:53;8.80;92.80
82991;DHT22;72806;50.832;4.864;2024-01-06T05:30:20;8.70;92.70
82991;DHT22;72806;50.832;4.864;2024-01-06T05:32:48;8.60;92.80
82991;DHT22;72806;50.832;4.864;2024-01-06T05:35:16;8.60;92.70
82991;DHT22;72806;50.832;4.864;2024-01-06T05:37:43;8.50;92.50
82991;DHT22;72806;50.832;4.864;2024-01-06T05:40:10;8.30;92.50
82991;DHT22;72806;50.832;4.864;2024-01-06T05:42:37;8.30;92.60
82991;DHT22;72806;50.832;4.864;2024-01-06T05:45:05;8.30;92.90
82991;DHT22;72806;50.832;4.864;2024-01-06T05:47:32;8.20;92.60
82991;DHT22;72806;50.832;4.864;2024-01-06T05:50:00;8.20;92.60
82991;DHT22;72806;50.832;4.864;2024-01-06T05:52:27;8.20;92.50
82991;DHT22;72806;50.832;4.864;2024-01-06T05:54:55;8.10;92.50
82991;DHT22;72806;50.832;4.864;2024-01-06T05:57:23;8.10;92.50
82991;DHT22;72806;50.832;4.864;2024-01-06T05:59:51;8.10;92.50
82991;DHT22;72806;50.832;4.864;2024-01-06T06:02:18;8.10;92.60
82991;DHT22;72806;50.832;4.864;2024-01-06T06:04:45;8.10;92.50
82991;DHT22;72806;50.832;4.864;2024-01-06T06:07:13;8.10;92.50
82991;DHT22;72806;50.832;4.864;2024-01-06T06:09:40;8.10;92.50
82991;DHT22;72806;50.832;4.864;2024-01-06T06:12:08;8.10;92.50
82991;DHT22;72806;50.832;4.864;2024-01-06T06:14:34;8.10;92.60
82991;DHT22;72806;50.832;4.864;2024-01-06T06:17:01;8.00;92.50
82991;DHT22;72806;50.832;4.864;2024-01-06T06:19:28;8.00;92.50
82991;DHT22;72806;50.832;4.864;2024-01-06T06:21:55;7.90;92.50
82991;DHT22;72806;50.832;4.864;2024-01-06T06:24:23;7.90;92.50
82991;DHT22;72806;50.832;4.864;2024-01-06T06:26:50;7.90;92.40
82991;DHT22;72806;50.832;4.864;2024-01-06T06:29:17;7.80;92.40
82991;DHT22;72806;50.832;4.864;2024-01-06T06:31:46;7.80;92.40
82991;DHT22;72806;50.832;4.864;2024-01-06T06:34:14;7.80;92.40
82991;DHT22;72806;50.832;4.864;2024-01-06T06:36:41;7.90;92.30
82991;DHT22;72806;50.832;4.864;2024-01-06T06:39:08;7.80;92.30
82991;DHT22;72806;50.832;4.864;2024-01-06T06:41:37;7.80;92.20
82991;DHT22;72806;50.832;4.864;2024-01-06T06:44:04;7.70;92.50
82991;DHT22;72806;50.832;4.864;2024-01-06T06:46:31;7.70;92.30
82991;DHT22;72806;50.832;4.864;2024-01-06T06:48:58;7.80;92.30
82991;DHT22;72806;50.832;4.864;2024-01-06T06:51:25;7.80;92.30
82991;DHT22;72806;50.832;4.864;2024-01-06T06:53:52;7.80;92.30
82991;DHT22;72806;50.832;4.864;2024-01-06T06:56:19;7.80;92.30
82991;DHT22;72806;50.832;4.864;2024-01-06T06:58:48;7.80;92.20
82991;DHT22;72806;50.832;4.864;2024-01-06T07:01:15;7.80;92.30
82991;DHT22;72806;50.832;4.864;2024-01-06T07:03:42;7.90;92.30
82991;DHT22;72806;50.832;4.864;2024-01-06T07:06:11;7.90;92.30
82991;DHT22;72806;50.832;4.864;2024-01-06T07:08:38;7.90;92.20
82991;DHT22;72806;50.832;4.864;2024-01-06T07:11:06;7.90;92.20
82991;DHT22;72806;50.832;4.864;2024-01-06T07:13:33;8.00;92.30
82991;DHT22;72806;50.832;4.864;2024-01-06T07:16:02;8.00;92.30
82991;DHT22;72806;50.832;4.864;2024-01-06T07:18:29;8.00;92.20
82991;DHT22;72806;50.832;4.864;2024-01-06T07:20:56;7.90;92.10
82991;DHT22;72806;50.832;4.864;2024-01-06T07:23:23;7.90;92.00
82991;DHT22;72806;50.832;4.864;2024-01-06T07:25:50;7.90;92.10
82991;DHT22;72806;50.832;4.864;2024-01-06T07:28:17;7.80;92.10
82991;DHT22;72806;50.832;4.864;2024-01-06T07:30:44;7.80;92.10
82991;DHT22;72806;50.832;4.864;2024-01-06T07:33:13;7.80;92.20
82991;DHT22;72806;50.832;4.864;2024-01-06T07:35:40;7.90;92.10
82991;DHT22;72806;50.832;4.864;2024-01-06T07:38:09;7.90;92.00
82991;DHT22;72806;50.832;4.864;2024-01-06T07:40:36;7.80;91.90
82991;DHT22;72806;50.832;4.864;2024-01-06T07:43:04;7.70;91.90
82991;DHT22;72806;50.832;4.864;2024-01-06T07:45:31;7.60;91.90
82991;DHT22;72806;50.832;4.864;2024-01-06T07:47:58;7.50;91.90
82991;DHT22;72806;50.832;4.864;2024-01-06T07:50:27;8.70;92.30
82991;DHT22;72806;50.832;4.864;2024-01-06T07:52:54;7.40;91.90
82991;DHT22;72806;50.832;4.864;2024-01-06T07:55:21;7.40;91.90
82991;DHT22;72806;50.832;4.864;2024-01-06T07:57:48;7.30;91.90
82991;DHT22;72806;50.832;4.864;2024-01-06T08:00:16;7.30;91.90
82991;DHT22;72806;50.832;4.864;2024-01-06T08:02:43;7.40;92.00
82991;DHT22;72806;50.832;4.864;2024-01-06T08:05:10;7.30;91.90
82991;DHT22;72806;50.832;4.864;2024-01-06T08:07:39;7.40;91.90
82991;DHT22;72806;50.832;4.864;2024-01-06T08:10:06;7.30;91.80
82991;DHT22;72806;50.832;4.864;2024-01-06T08:12:34;7.30;91.90
82991;DHT22;72806;50.832;4.864;2024-01-06T08:15:01;7.30;91.80
82991;DHT22;72806;50.832;4.864;2024-01-06T08:17:29;7.40;91.90
82991;DHT22;72806;50.832;4.864;2024-01-06T08:19:56;7.40;91.90
82991;DHT22;72806;50.832;4.864;2024-01-06T08:22:23;7.40;91.80
82991;DHT22;72806;50.832;4.864;2024-01-06T08:24:51;7.50;91.80
82991;DHT22;72806;50.832;4.864;2024-01-06T08:27:19;7.40;91.70
82991;DHT22;72806;50.832;4.864;2024-01-06T08:29:46;7.40;91.70
82991;DHT22;72806;50.832;4.864;2024-01-06T08:32:13;7.40;91.80
82991;DHT22;72806;50.832;4.864;2024-01-06T08:34:42;7.40;91.80
82991;DHT22;72806;50.832;4.864;2024-01-06T08:37:09;7.50;91.90
82991;DHT22;72806;50.832;4.864;2024-01-06T08:39:35;7.60;91.80
82991;DHT22;72806;50.832;4.864;2024-01-06T08:42:05;7.50;91.70
82991;DHT22;72806;50.832;4.864;2024-01-06T08:44:32;7.50;91.70
82991;DHT22;72806;50.832;4.864;2024-01-06T08:46:58;7.50;91.60
82991;DHT22;72806;50.832;4.864;2024-01-06T08:49:25;7.50;91.60
82991;DHT22;72806;50.832;4.864;2024-01-06T08:51:52;7.40;91.50
82991;DHT22;72806;50.832;4.864;2024-01-06T08:54:20;7.40;91.60
82991;DHT22;72806;50.832;4.864;2024-01-06T08:56:47;7.30;91.40
82991;DHT22;72806;50.832;4.864;2024-01-06T08:59:15;7.30;91.50
82991;DHT22;72806;50.832;4.864;2024-01-06T09:01:42;7.20;91.40
82991;DHT22;72806;50.832;4.864;2024-01-06T09:04:09;7.20;91.50
82991;DHT22;72806;50.832;4.864;2024-01-06T09:06:37;7.20;91.50
82991;DHT22;72806;50.832;4.864;2024-01-06T09:09:03;7.20;91.60
82991;DHT22;72806;50.832;4.864;2024-01-06T09:11:31;7.30;91.60
82991;DHT22;72806;50.832;4.864;2024-01-06T09:13:59;7.30;91.60
82991;DHT22;72806;50.832;4.864;2024-01-06T09:16:27;7.30;91.60
82991;DHT22;72806;50.832;4.864;2024-01-06T09:18:54;7.30;91.40
82991;DHT22;72806;50.832;4.864;2024-01-06T09:21:22;7.20;91.40
82991;DHT22;72806;50.832;4.864;2024-01-06T09:23:49;7.20;91.40
82991;DHT22;72806;50.832;4.864;2024-01-06T09:26:16;7.20;91.40
82991;DHT22;72806;50.832;4.864;2024-01-06T09:28:43;7.20;91.40
82991;DHT22;72806;50.832;4.864;2024-01-06T09:31:09;7.10;91.40
82991;DHT22;72806;50.832;4.864;2024-01-06T09:33:38;7.20;91.50
82991;DHT22;72806;50.832;4.864;2024-01-06T09:36:05;7.20;91.40
82991;DHT22;72806;50.832;4.864;2024-01-06T09:38:34;7.20;91.40
82991;DHT22;72806;50.832;4.864;2024-01-06T09:41:01;7.10;91.40
82991;DHT22;72806;50.832;4.864;2024-01-06T09:43:28;7.20;91.50
82991;DHT22;72806;50.832;4.864;2024-01-06T09:46:01;7.20;91.50
82991;DHT22;72806;50.832;4.864;2024-01-06T09:48:29;7.20;91.50
82991;DHT22;72806;50.832;4.864;2024-01-06T09:51:02;7.20;91.50
82991;DHT22;72806;50.832;4.864;2024-01-06T09:53:34;7.30;91.60
82991;DHT22;72806;50.832;4.864;2024-01-06T09:56:02;7.30;91.50
82991;DHT22;72806;50.832;4.864;2024-01-06T09:58:30;7.30;91.40
82991;DHT22;72806;50.832;4.864;2024-01-06T10:01:00;7.20;91.40
82991;DHT22;72806;50.832;4.864;2024-01-06T10:03:29;7.30;91.40
82991;DHT22;72806;50.832;4.864;2024-01-06T10:05:56;7.20;91.40
82991;DHT22;72806;50.832;4.864;2024-01-06T10:08:27;7.30;91.40
82991;DHT22;72806;50.832;4.864;2024-01-06T10:10:54;7.20;91.60
82991;DHT22;72806;50.832;4.864;2024-01-06T10:13:21;7.20;91.40
82991;DHT22;72806;50.832;4.864;2024-01-06T10:15:50;7.30;91.40
82991;DHT22;72806;50.832;4.864;2024-01-06T10:18:17;7.30;91.30
82991;DHT22;72806;50.832;4.864;2024-01-06T10:20:45;7.20;91.30
82991;DHT22;72806;50.832;4.864;2024-01-06T10:23:11;7.20;91.30
82991;DHT22;72806;50.832;4.864;2024-01-06T10:25:41;7.10;91.30
82991;DHT22;72806;50.832;4.864;2024-01-06T10:28:11;7.10;91.30
82991;DHT22;72806;50.832;4.864;2024-01-06T10:30:39;7.00;91.20
82991;DHT22;72806;50.832;4.864;2024-01-06T10:33:08;6.90;91.20
82991;DHT22;72806;50.832;4.864;2024-01-06T10:35:37;6.90;91.30
82991;DHT22;72806;50.832;4.864;2024-01-06T10:38:04;6.90;91.30
82991;DHT22;72806;50.832;4.864;2024-01-06T10:40:32;6.90;91.20
82991;DHT22;72806;50.832;4.864;2024-01-06T10:43:02;6.90;91.30
82991;DHT22;72806;50.832;4.864;2024-01-06T10:45:30;6.90;91.30
82991;DHT22;72806;50.832;4.864;2024-01-06T10:47:58;6.90;91.30
82991;DHT22;72806;50.832;4.864;2024-01-06T10:50:27;6.90;91.30
82991;DHT22;72806;50.832;4.864;2024-01-06T10:52:56;6.90;91.30
82991;DHT22;72806;50.832;4.864;2024-01-06T10:55:25;6.90;91.30
82991;DHT22;72806;50.832;4.864;2024-01-06T10:57:54;6.90;91.30
82991;DHT22;72806;50.832;4.864;2024-01-06T11:00:23;6.90;91.30
82991;DHT22;72806;50.832;4.864;2024-01-06T11:02:51;6.90;91.30
82991;DHT22;72806;50.832;4.864;2024-01-06T11:05:20;6.80;91.30
82991;DHT22;72806;50.832;4.864;2024-01-06T11:07:47;6.80;91.40
82991;DHT22;72806;50.832;4.864;2024-01-06T11:10:18;6.80;91.40
82991;DHT22;72806;50.832;4.864;2024-01-06T11:12:46;6.90;91.50
82991;DHT22;72806;50.832;4.864;2024-01-06T11:15:43;6.90;91.40
82991;DHT22;72806;50.832;4.864;2024-01-06T11:18:31;6.90;91.40
82991;DHT22;72806;50.832;4.864;2024-01-06T11:21:17;6.90;91.30
82991;DHT22;72806;50.832;4.864;2024-01-06T11:24:08;6.90;91.40
82991;DHT22;72806;50.832;4.864;2024-01-06T11:26:39;7.00;91.30
82991;DHT22;72806;50.832;4.864;2024-01-06T11:29:07;7.00;91.20
82991;DHT22;72806;50.832;4.864;2024-01-06T11:31:36;7.00;91.20
82991;DHT22;72806;50.832;4.864;2024-01-06T11:34:13;7.00;91.10
82991;DHT22;72806;50.832;4.864;2024-01-06T11:36:43;7.00;91.00
82991;DHT22;72806;50.832;4.864;2024-01-06T11:39:34;6.90;91.00
82991;DHT22;72806;50.832;4.864;2024-01-06T11:42:02;6.90;91.10
82991;DHT22;72806;50.832;4.864;2024-01-06T11:44:29;7.00;91.00
82991;DHT22;72806;50.832;4.864;2024-01-06T11:47:02;7.00;90.90
82991;DHT22;72806;50.832;4.864;2024-01-06T11:49:30;7.00;90.90
82991;DHT22;72806;50.832;4.864;2024-01-06T11:51:58;7.00;90.90
82991;DHT22;72806;50.832;4.864;2024-01-06T11:54:25;7.10;91.00
82991;DHT22;72806;50.832;4.864;2024-01-06T11:56:52;7.10;91.00
82991;DHT22;72806;50.832;4.864;2024-01-06T11:59:21;7.10;90.70
82991;DHT22;72806;50.832;4.864;2024-01-06T12:01:48;7.00;90.50
82991;DHT22;72806;50.832;4.864;2024-01-06T12:04:18;7.00;90.60
82991;DHT22;72806;50.832;4.864;2024-01-06T12:06:47;7.10;90.60
82991;DHT22;72806;50.832;4.864;2024-01-06T12:09:17;7.00;90.60
82991;DHT22;72806;50.832;4.864;2024-01-06T12:11:44;7.10;90.40
82991;DHT22;72806;50.832;4.864;2024-01-06T12:14:12;7.00;90.40
82991;DHT22;72806;50.832;4.864;2024-01-06T12:16:39;7.00;90.50
82991;DHT22;72806;50.832;4.864;2024-01-06T12:19:06;7.00;90.40
82991;DHT22;72806;50.832;4.864;2024-01-06T12:21:35;7.00;90.40
82991;DHT22;72806;50.832;4.864;2024-01-06T12:24:13;7.00;90.30
82991;DHT22;72806;50.832;4.864;2024-01-06T12:26:42;7.00;90.00
82991;DHT22;72806;50.832;4.864;2024-01-06T12:29:09;6.90;90.00
82991;DHT22;72806;50.832;4.864;2024-01-06T12:31:38;6.90;90.20
82991;DHT22;72806;50.832;4.864;2024-01-06T12:34:05;6.90;90.20
82991;DHT22;72806;50.832;4.864;2024-01-06T12:36:34;7.00;90.30
82991;DHT22;72806;50.832;4.864;2024-01-06T12:39:03;7.00;90.30
82991;DHT22;72806;50.832;4.864;2024-01-06T12:41:33;7.10;90.20
82991;DHT22;72806;50.832;4.864;2024-01-06T12:44:03;7.10;90.20
82991;DHT22;72806;50.832;4.864;2024-01-06T12:46:30;7.10;90.00
82991;DHT22;72806;50.832;4.864;2024-01-06T12:48:57;7.10;90.10
82991;DHT22;72806;50.832;4.864;2024-01-06T12:51:24;7.20;90.00
82991;DHT22;72806;50.832;4.864;2024-01-06T12:53:53;7.10;89.90
82991;DHT22;72806;50.832;4.864;2024-01-06T12:56:20;7.10;90.00
82991;DHT22;72806;50.832;4.864;2024-01-06T12:58:47;7.20;89.90
82991;DHT22;72806;50.832;4.864;2024-01-06T13:01:14;7.20;90.20
82991;DHT22;72806;50.832;4.864;2024-01-06T13:03:40;7.20;89.80
82991;DHT22;72806;50.832;4.864;2024-01-06T13:06:07;7.20;89.80
82991;DHT22;72806;50.832;4.864;2024-01-06T13:08:34;7.20;89.70
82991;DHT22;72806;50.832;4.864;2024-01-06T13:11:03;7.20;89.70
82991;DHT22;72806;50.832;4.864;2024-01-06T13:13:30;7.20;89.40
82991;DHT22;72806;50.832;4.864;2024-01-06T13:15:58;7.20;89.30
82991;DHT22;72806;50.832;4.864;2024-01-06T13:18:24;7.10;89.20
82991;DHT22;72806;50.832;4.864;2024-01-06T13:20:52;7.00;89.10
82991;DHT22;72806;50.832;4.864;2024-01-06T13:23:20;7.00;89.30
82991;DHT22;72806;50.832;4.864;2024-01-06T13:25:46;6.90;89.20
82991;DHT22;72806;50.832;4.864;2024-01-06T13:28:15;6.90;89.30
82991;DHT22;72806;50.832;4.864;2024-01-06T13:30:42;6.90;89.40
82991;DHT22;72806;50.832;4.864;2024-01-06T13:33:09;6.90;89.60
82991;DHT22;72806;50.832;4.864;2024-01-06T13:35:36;6.80;89.30
82991;DHT22;72806;50.832;4.864;2024-01-06T13:38:03;6.80;89.30
82991;DHT22;72806;50.832;4.864;2024-01-06T13:40:31;6.70;89.40
82991;DHT22;72806;50.832;4.864;2024-01-06T13:42:58;6.70;89.40
82991;DHT22;72806;50.832;4.864;2024-01-06T13:45:26;6.70;89.60
82991;DHT22;72806;50.832;4.864;2024-01-06T13:47:53;6.70;89.70
82991;DHT22;72806;50.832;4.864;2024-01-06T13:50:20;6.60;89.90
82991;DHT22;72806;50.832;4.864;2024-01-06T13:52:47;6.50;90.00
82991;DHT22;72806;50.832;4.864;2024-01-06T13:55:14;6.50;90.20
82991;DHT22;72806;50.832;4.864;2024-01-06T13:57:41;6.50;90.00
82991;DHT22;72806;50.832;4.864;2024-01-06T14:00:09;6.60;90.00
82991;DHT22;72806;50.832;4.864;2024-01-06T14:02:41;6.60;90.00
82991;DHT22;72806;50.832;4.864;2024-01-06T14:05:09;6.60;90.00
82991;DHT22;72806;50.832;4.864;2024-01-06T14:07:36;6.70;89.90
82991;DHT22;72806;50.832;4.864;2024-01-06T14:10:04;6.70;89.80
82991;DHT22;72806;50.832;4.864;2024-01-06T14:12:32;6.60;89.80
82991;DHT22;72806;50.832;4.864;2024-01-06T14:14:59;6.60;89.90
82991;DHT22;72806;50.832;4.864;2024-01-06T14:17:27;6.60;90.00
82991;DHT22;72806;50.832;4.864;2024-01-06T14:19:55;6.60;89.90
82991;DHT22;72806;50.832;4.864;2024-01-06T14:22:22;6.60;90.00
82991;DHT22;72806;50.832;4.864;2024-01-06T14:24:49;6.60;89.80
82991;DHT22;72806;50.832;4.864;2024-01-06T14:27:16;6.60;89.90
82991;DHT22;72806;50.832;4.864;2024-01-06T14:29:43;6.60;89.90
82991;DHT22;72806;50.832;4.864;2024-01-06T14:32:10;6.60;89.80
82991;DHT22;72806;50.832;4.864;2024-01-06T14:34:39;6.60;89.60
82991;DHT22;72806;50.832;4.864;2024-01-06T14:37:07;6.50;89.40
82991;DHT22;72806;50.832;4.864;2024-01-06T14:39:34;6.50;89.60
82991;DHT22;72806;50.832;4.864;2024-01-06T14:42:03;6.50;89.50
82991;DHT22;72806;50.832;4.864;2024-01-06T14:44:29;6.40;89.20
82991;DHT22;72806;50.832;4.864;2024-01-06T14:46:57;6.40;89.20
82991;DHT22;72806;50.832;4.864;2024-01-06T14:49:24;6.30;89.30
82991;DHT22;72806;50.832;4.864;2024-01-06T14:51:51;6.30;89.20
82991;DHT22;72806;50.832;4.864;2024-01-06T14:54:19;6.30;89.40
82991;DHT22;72806;50.832;4.864;2024-01-06T14:56:46;6.40;89.50
82991;DHT22;72806;50.832;4.864;2024-01-06T14:59:13;6.50;89.40
82991;DHT22;72806;50.832;4.864;2024-01-06T15:01:42;6.40;89.30
82991;DHT22;72806;50.832;4.864;2024-01-06T15:04:10;6.50;89.30
82991;DHT22;72806;50.832;4.864;2024-01-06T15:06:37;6.50;89.20
82991;DHT22;72806;50.832;4.864;2024-01-06T15:09:04;6.50;89.10
82991;DHT22;72806;50.832;4.864;2024-01-06T15:11:32;6.50;88.90
82991;DHT22;72806;50.832;4.864;2024-01-06T15:14:00;6.50;89.00
82991;DHT22;72806;50.832;4.864;2024-01-06T15:16:30;6.50;89.00
82991;DHT22;72806;50.832;4.864;2024-01-06T15:18:57;6.50;88.80
82991;DHT22;72806;50.832;4.864;2024-01-06T15:21:25;6.40;88.80
82991;DHT22;72806;50.832;4.864;2024-01-06T15:23:53;6.40;88.70
82991;DHT22;72806;50.832;4.864;2024-01-06T15:26:24;6.40;88.60
82991;DHT22;72806;50.832;4.864;2024-01-06T15:28:52;6.40;88.60
82991;DHT22;72806;50.832;4.864;2024-01-06T15:31:21;6.30;88.50
82991;DHT22;72806;50.832;4.864;2024-01-06T15:33:48;6.30;88.60
82991;DHT22;72806;50.832;4.864;2024-01-06T15:36:15;6.30;88.50
82991;DHT22;72806;50.832;4.864;2024-01-06T15:38:42;6.30;88.40
82991;DHT22;72806;50.832;4.864;2024-01-06T15:41:09;6.30;88.40
82991;DHT22;72806;50.832;4.864;2024-01-06T15:43:36;6.30;88.60
82991;DHT22;72806;50.832;4.864;2024-01-06T15:46:05;6.30;88.40
82991;DHT22;72806;50.832;4.864;2024-01-06T15:48:33;6.30;88.40